Time;durP1;ratioP1;P1;durP2;ratioP2;P2;SDS_P1;SDS_P2;PMS_P1;PMS_P2;Temp;Humidity;BMP_temperature;BMP_pressure;BME280_temperature;BME280_humidity;BME280_pressure;Samples;Min_cycle;Max_cycle;Signal;HPM_P1;HPM_P2
2022/08/07 00:00:07;;;;;;;0.20;0.20;;;23.50;57.70;;;;;;4983025;28;20073;-18
2022/08/07 00:02:33;;;;;;;0.20;0.20;;;23.50;57.70;;;;;;4984539;28;20397;-18
2022/08/07 00:04:58;;;;;;;0.30;0.20;;;23.40;57.70;;;;;;4985238;28;20578;-18
2022/08/07 00:07:24;;;;;;;0.63;0.30;;;23.50;57.80;;;;;;4985490;28;20392;-22
2022/08/07 00:09:49;;;;;;;0.10;0.10;;;23.50;57.70;;;;;;4984274;28;20054;-18
2022/08/07 00:12:15;;;;;;;0.30;0.30;;;23.40;57.70;;;;;;4984712;28;20042;-18
2022/08/07 00:14:40;;;;;;;0.60;0.30;;;23.40;57.80;;;;;;4983758;28;20573;-18
2022/08/07 00:17:06;;;;;;;0.30;0.20;;;23.50;57.70;;;;;;4982808;28;20055;-18
2022/08/07 00:19:32;;;;;;;0.35;0.30;;;23.50;57.80;;;;;;4986279;28;20484;-21
2022/08/07 00:21:57;;;;;;;0.10;0.10;;;23.40;57.80;;;;;;4987814;28;20069;-18
2022/08/07 00:24:23;;;;;;;0.20;0.13;;;23.50;57.80;;;;;;4986617;28;20090;-18
2022/08/07 00:26:50;;;;;;;0.40;0.20;;;23.50;58.40;;;;;;4984972;28;20100;-19
2022/08/07 00:29:17;;;;;;;0.20;0.20;;;23.40;57.80;;;;;;4988013;28;20046;-18
2022/08/07 00:31:42;;;;;;;0.10;0.10;;;23.40;57.70;;;;;;4988831;28;20129;-19
2022/08/07 00:34:08;;;;;;;0.10;0.10;;;23.40;57.70;;;;;;4988073;28;20080;-18
2022/08/07 00:36:34;;;;;;;0.20;0.10;;;23.40;57.70;;;;;;4986766;28;20058;-18
2022/08/07 00:38:59;;;;;;;0.30;0.20;;;23.40;57.80;;;;;;4987812;28;20054;-18
2022/08/07 00:41:26;;;;;;;0.20;0.20;;;23.40;57.90;;;;;;4988224;28;20073;-18
2022/08/07 00:43:52;;;;;;;0.40;0.20;;;23.40;57.90;;;;;;4987687;28;20137;-18
2022/08/07 00:46:17;;;;;;;0.28;0.20;;;23.40;57.90;;;;;;4985299;28;20730;-22
2022/08/07 00:48:43;;;;;;;0.20;0.20;;;23.40;58.00;;;;;;4987690;28;20047;-18
2022/08/07 00:51:08;;;;;;;0.10;0.10;;;23.40;58.00;;;;;;4986948;28;20038;-18
2022/08/07 00:53:34;;;;;;;0.20;0.10;;;23.40;58.00;;;;;;4987005;28;20532;-18
2022/08/07 00:56:01;;;;;;;0.10;0.10;;;23.40;58.60;;;;;;4987393;28;20108;-20
2022/08/07 00:58:27;;;;;;;0.20;0.20;;;23.40;58.00;;;;;;4986695;28;20038;-19
2022/08/07 01:00:52;;;;;;;0.10;0.10;;;23.40;57.90;;;;;;4987076;28;20418;-19
2022/08/07 01:03:18;;;;;;;0.10;0.10;;;23.40;57.90;;;;;;4987052;28;20053;-19
2022/08/07 01:05:44;;;;;;;0.20;0.20;;;23.40;58.00;;;;;;5019448;28;20060;-19
2022/08/07 01:08:09;;;;;;;0.10;0.10;;;23.40;58.60;;;;;;4985734;28;20042;-19
2022/08/07 01:10:36;;;;;;;0.10;0.10;;;23.40;57.80;;;;;;4987656;28;20081;-21
2022/08/07 01:13:02;;;;;;;0.13;0.10;;;23.40;57.90;;;;;;4985452;28;20038;-18
2022/08/07 01:15:28;;;;;;;0.05;0.03;;;23.40;57.90;;;;;;5001590;28;20058;-25
2022/08/07 01:17:53;;;;;;;0.55;0.20;;;23.40;58.00;;;;;;4985748;28;20141;-18
2022/08/07 01:20:21;;;;;;;0.30;0.15;;;23.40;58.00;;;;;;5019054;28;20102;-19
2022/08/07 01:22:47;;;;;;;0.30;0.15;;;23.40;58.00;;;;;;5019351;28;20121;-19
2022/08/07 01:25:12;;;;;;;0.20;0.10;;;23.40;58.10;;;;;;5000391;28;20500;-18
2022/08/07 01:27:38;;;;;;;0.03;0.03;;;23.30;58.00;;;;;;4988234;28;20066;-17
2022/08/07 01:30:04;;;;;;;0.10;0.10;;;23.40;58.10;;;;;;4987484;28;20046;-18
2022/08/07 01:32:30;;;;;;;0.10;0.10;;;23.30;57.90;;;;;;4989185;28;20492;-19
2022/08/07 01:34:55;;;;;;;0.20;0.13;;;23.30;57.90;;;;;;5001988;28;20066;-20
2022/08/07 01:37:21;;;;;;;0.10;0.03;;;23.30;58.00;;;;;;5018614;28;20062;-18
2022/08/07 01:39:46;;;;;;;0.30;0.30;;;23.30;58.00;;;;;;5015268;28;20404;-19
2022/08/07 01:42:15;;;;;;;0.20;0.10;;;23.40;58.10;;;;;;4987162;28;20038;-22
2022/08/07 01:44:40;;;;;;;0.10;0.10;;;23.30;58.00;;;;;;4985492;28;20037;-19
2022/08/07 01:47:07;;;;;;;0.20;0.20;;;23.30;58.00;;;;;;4981008;28;20047;-18
2022/08/07 01:49:32;;;;;;;0.10;0.10;;;23.30;58.00;;;;;;4988849;28;20046;-21
2022/08/07 01:51:59;;;;;;;0.03;0.00;;;23.30;58.10;;;;;;4982363;28;20138;-18
2022/08/07 01:54:24;;;;;;;0.43;0.13;;;23.30;58.00;;;;;;4985847;28;20101;-18
2022/08/07 01:57:04;;;;;;;0.00;0.00;;;23.30;58.00;;;;;;4985462;28;20050;-21
2022/08/07 01:59:43;;;;;;;0.10;0.10;;;23.30;58.10;;;;;;4969258;28;20042;-19
2022/08/07 02:02:12;;;;;;;0.10;0.10;;;23.30;58.10;;;;;;5017637;28;20062;-18
2022/08/07 02:04:43;;;;;;;0.13;0.10;;;23.30;58.00;;;;;;5002294;28;20050;-18
2022/08/07 02:07:09;;;;;;;0.20;0.10;;;23.30;57.90;;;;;;4985398;28;20049;-19
2022/08/07 02:09:34;;;;;;;0.25;0.00;;;23.30;58.00;;;;;;4985023;28;20545;-18
2022/08/07 02:12:15;;;;;;;0.45;0.10;;;23.30;58.10;;;;;;4983675;28;20053;-19
2022/08/07 02:14:42;;;;;;;0.30;0.30;;;23.30;58.00;;;;;;4985628;28;20129;-19
2022/08/07 02:17:09;;;;;;;0.38;0.38;;;23.30;58.00;;;;;;4983783;28;20473;-18
2022/08/07 02:19:34;;;;;;;0.10;0.10;;;23.30;58.00;;;;;;4999396;28;20108;-19
2022/08/07 02:22:00;;;;;;;0.35;0.30;;;23.30;58.00;;;;;;4983940;28;20047;-19
2022/08/07 02:24:27;;;;;;;0.30;0.10;;;23.30;58.10;;;;;;4985696;28;20078;-18
2022/08/07 02:26:53;;;;;;;0.17;0.17;;;23.30;58.00;;;;;;5017928;28;20064;-21
2022/08/07 02:29:18;;;;;;;0.20;0.20;;;23.20;58.10;;;;;;5018986;28;20038;-18
2022/08/07 02:31:44;;;;;;;0.20;0.20;;;23.30;58.00;;;;;;5015005;28;20042;-19
2022/08/07 02:34:09;;;;;;;0.10;0.10;;;23.30;58.10;;;;;;4970642;28;20046;-18
2022/08/07 02:36:35;;;;;;;0.10;0.10;;;23.30;58.10;;;;;;4981385;28;20054;-18
2022/08/07 02:39:02;;;;;;;0.17;0.17;;;23.30;58.10;;;;;;5016506;28;20100;-19
2022/08/07 02:41:27;;;;;;;0.10;0.10;;;23.30;58.10;;;;;;4988105;28;20034;-20
2022/08/07 02:43:53;;;;;;;0.25;0.25;;;23.30;58.20;;;;;;5017987;28;20064;-18
2022/08/07 02:46:19;;;;;;;0.05;0.05;;;23.30;58.20;;;;;;5017186;28;20038;-18
2022/08/07 02:48:45;;;;;;;0.20;0.17;;;23.30;58.10;;;;;;4998643;28;20052;-19
2022/08/07 02:51:12;;;;;;;0.20;0.20;;;23.30;58.10;;;;;;4985345;28;20661;-19
2022/08/07 02:53:38;;;;;;;0.20;0.20;;;23.20;58.10;;;;;;4981886;28;20471;-19
2022/08/07 02:56:04;;;;;;;0.22;0.20;;;23.20;58.10;;;;;;4983963;28;21013;-18
2022/08/07 02:58:30;;;;;;;0.10;0.10;;;23.30;58.20;;;;;;5016967;28;20046;-18
2022/08/07 03:00:56;;;;;;;0.10;0.10;;;23.20;58.80;;;;;;4983165;28;20046;-21
2022/08/07 03:03:22;;;;;;;0.22;0.10;;;23.20;58.10;;;;;;4985393;28;20161;-25
2022/08/07 03:05:49;;;;;;;0.25;0.17;;;23.20;58.20;;;;;;4986315;28;20122;-20
2022/08/07 03:08:15;;;;;;;0.25;0.10;;;23.20;58.20;;;;;;4986374;28;20129;-18
2022/08/07 03:10:40;;;;;;;0.38;0.13;;;23.20;58.20;;;;;;5016657;28;20192;-19
2022/08/07 03:13:06;;;;;;;0.10;0.10;;;23.20;58.20;;;;;;4982988;28;20038;-18
2022/08/07 03:15:31;;;;;;;0.10;0.10;;;23.20;58.20;;;;;;5001783;28;20067;-18
2022/08/07 03:17:57;;;;;;;0.10;0.10;;;23.20;58.20;;;;;;4981482;28;20065;-19
2022/08/07 03:20:23;;;;;;;0.45;0.10;;;23.20;58.20;;;;;;5014046;28;20045;-18
2022/08/07 03:22:49;;;;;;;0.43;0.17;;;23.20;58.30;;;;;;4983301;28;20046;-20
2022/08/07 03:25:17;;;;;;;0.20;0.20;;;23.20;58.20;;;;;;5015503;28;20586;-18
2022/08/07 03:27:42;;;;;;;0.10;0.10;;;23.20;58.30;;;;;;4982996;28;20039;-19
2022/08/07 03:30:08;;;;;;;0.10;0.10;;;23.20;58.20;;;;;;4986307;28;20046;-18
2022/08/07 03:32:37;;;;;;;0.10;0.10;;;23.20;58.20;;;;;;4983870;28;20105;-19
2022/08/07 03:35:04;;;;;;;0.20;0.20;;;23.20;58.20;;;;;;4984086;28;20113;-19
2022/08/07 03:37:30;;;;;;;0.20;0.10;;;23.20;58.20;;;;;;4982391;28;20050;-19
2022/08/07 03:39:56;;;;;;;0.10;0.10;;;23.20;58.20;;;;;;4983152;28;20058;-18
2022/08/07 03:42:22;;;;;;;0.10;0.10;;;23.20;58.30;;;;;;4982114;28;20100;-19
2022/08/07 03:44:47;;;;;;;0.10;0.10;;;23.10;58.10;;;;;;4995585;28;20404;-18
2022/08/07 03:47:13;;;;;;;0.30;0.20;;;23.20;58.20;;;;;;4996801;28;20039;-18
2022/08/07 03:49:38;;;;;;;0.38;0.10;;;23.20;58.70;;;;;;4984918;28;20053;-18
2022/08/07 03:52:05;;;;;;;1.13;0.35;;;23.10;56.60;;;;;;4997250;28;20050;-19
2022/08/07 03:54:30;;;;;;;0.75;0.28;;;22.70;52.80;;;;;;5016257;28;20046;-18
2022/08/07 03:56:56;;;;;;;0.80;0.50;;;22.40;51.60;;;;;;4983755;28;20048;-18
2022/08/07 03:59:21;;;;;;;1.45;0.52;;;22.20;51.20;;;;;;4982922;28;20097;-18
2022/08/07 04:01:47;;;;;;;1.73;0.95;;;22.10;51.40;;;;;;4988997;28;20105;-19
2022/08/07 04:04:14;;;;;;;1.08;0.65;;;22.00;51.80;;;;;;5021202;28;20060;-19
2022/08/07 04:06:40;;;;;;;0.60;0.40;;;21.80;51.30;;;;;;4987212;28;20069;-19
2022/08/07 04:09:06;;;;;;;0.80;0.40;;;21.80;52.10;;;;;;4987149;28;20503;-18
2022/08/07 04:11:32;;;;;;;0.55;0.40;;;21.70;51.30;;;;;;4991643;28;20507;-18
2022/08/07 04:13:58;;;;;;;1.08;0.30;;;21.60;51.30;;;;;;4984934;28;20149;-19
2022/08/07 04:16:23;;;;;;;0.55;0.40;;;21.50;51.40;;;;;;4988134;28;20125;-18
2022/08/07 04:18:49;;;;;;;0.70;0.38;;;21.40;51.60;;;;;;4983473;28;20597;-18
2022/08/07 04:21:15;;;;;;;0.35;0.25;;;21.30;51.80;;;;;;4987588;28;20043;-23
2022/08/07 04:23:40;;;;;;;1.67;0.50;;;21.30;51.80;;;;;;4986422;28;20081;-18
2022/08/07 04:26:06;;;;;;;0.73;0.43;;;21.10;52.10;;;;;;4968173;28;20042;-18
2022/08/07 04:28:32;;;;;;;0.63;0.32;;;21.00;52.30;;;;;;4989655;28;20050;-18
2022/08/07 04:30:57;;;;;;;0.45;0.38;;;21.00;52.70;;;;;;4987399;28;20050;-18
2022/08/07 04:33:23;;;;;;;0.50;0.30;;;20.80;52.80;;;;;;4986951;28;20583;-19
2022/08/07 04:35:49;;;;;;;1.00;0.30;;;20.70;52.80;;;;;;4987235;28;20054;-18
2022/08/07 04:38:14;;;;;;;0.75;0.47;;;20.70;53.00;;;;;;5019142;28;20080;-18
2022/08/07 04:40:41;;;;;;;1.75;0.40;;;20.70;53.00;;;;;;5020628;28;20496;-19
2022/08/07 04:43:07;;;;;;;0.40;0.40;;;20.70;53.10;;;;;;4987533;28;20043;-19
2022/08/07 04:45:54;;;;;;;0.45;0.45;;;20.60;53.20;;;;;;4988076;28;20702;-18
2022/08/07 04:48:33;;;;;;;0.40;0.40;;;20.40;53.40;;;;;;5002194;28;20074;-19
2022/08/07 04:51:04;;;;;;;0.82;0.30;;;20.40;53.40;;;;;;4984074;28;20053;-19
2022/08/07 04:53:37;;;;;;;0.40;0.35;;;20.50;53.50;;;;;;5019269;28;20129;-18
2022/08/07 04:56:19;;;;;;;0.85;0.43;;;20.30;53.60;;;;;;4984390;28;20063;-19
2022/08/07 04:58:52;;;;;;;1.35;0.45;;;20.30;53.70;;;;;;5000073;28;20038;-17
2022/08/07 05:01:34;;;;;;;0.45;0.30;;;20.20;53.90;;;;;;4988011;28;20104;-19
2022/08/07 05:04:10;;;;;;;0.52;0.30;;;20.20;54.00;;;;;;5017349;28;20043;-20
2022/08/07 05:07:15;;;;;;;1.42;0.45;;;20.00;54.30;;;;;;4990068;28;20070;-18
2022/08/07 05:09:53;;;;;;;1.07;0.50;;;20.00;54.50;;;;;;4985907;28;20482;-19
2022/08/07 05:12:22;;;;;;;0.73;0.45;;;20.00;54.40;;;;;;5016655;28;20528;-19
2022/08/07 05:14:48;;;;;;;1.23;0.57;;;19.90;54.50;;;;;;4985868;28;20604;-18
2022/08/07 05:17:14;;;;;;;0.43;0.43;;;19.80;54.80;;;;;;4968609;28;20125;-20
2022/08/07 05:19:43;;;;;;;0.30;0.30;;;19.60;55.30;;;;;;4984374;28;20047;-18
2022/08/07 05:22:09;;;;;;;1.02;0.55;;;19.60;55.40;;;;;;4983842;28;20057;-19
2022/08/07 05:24:35;;;;;;;0.30;0.30;;;19.50;55.70;;;;;;4630636;28;10000513;-17
2022/08/07 05:27:00;;;;;;;0.90;0.50;;;19.60;55.80;;;;;;4981868;28;20049;-18
2022/08/07 05:29:26;;;;;;;0.68;0.30;;;19.60;55.90;;;;;;4984351;28;20169;-18
2022/08/07 05:31:52;;;;;;;0.75;0.30;;;19.50;55.70;;;;;;5015433;28;20052;-18
2022/08/07 05:34:18;;;;;;;1.02;0.50;;;19.50;55.80;;;;;;5015693;28;20046;-18
2022/08/07 05:36:50;;;;;;;1.45;0.60;;;19.40;56.10;;;;;;5012025;28;20519;-18
2022/08/07 05:39:16;;;;;;;1.80;0.52;;;19.40;56.00;;;;;;5012739;28;20042;-18
2022/08/07 05:41:42;;;;;;;1.80;0.47;;;19.50;56.10;;;;;;4979932;28;20821;-21
2022/08/07 05:44:08;;;;;;;1.00;0.40;;;19.40;56.00;;;;;;5008294;28;20046;-18
2022/08/07 05:46:35;;;;;;;0.95;0.45;;;19.40;56.00;;;;;;5014194;28;20034;-19
2022/08/07 05:49:00;;;;;;;1.23;0.40;;;19.30;56.40;;;;;;4980468;28;20046;-18
2022/08/07 05:51:26;;;;;;;0.40;0.40;;;19.30;56.40;;;;;;4983113;28;20050;-18
2022/08/07 05:53:51;;;;;;;2.15;0.47;;;19.20;56.90;;;;;;4977933;28;20037;-28
2022/08/07 05:56:18;;;;;;;1.75;0.40;;;19.30;56.80;;;;;;4975807;28;20133;-18
2022/08/07 05:58:45;;;;;;;1.00;0.55;;;19.20;56.80;;;;;;4979142;28;20074;-19
2022/08/07 06:01:12;;;;;;;0.38;0.20;;;19.30;57.00;;;;;;4974018;28;20073;-24
2022/08/07 06:03:38;;;;;;;0.88;0.70;;;19.20;57.10;;;;;;4973410;28;20582;-20
2022/08/07 06:06:04;;;;;;;0.40;0.40;;;19.20;57.00;;;;;;4978917;28;20097;-18
2022/08/07 06:08:30;;;;;;;2.05;0.60;;;19.20;57.20;;;;;;4993722;28;20043;-19
2022/08/07 06:10:55;;;;;;;0.57;0.38;;;19.10;58.10;;;;;;4976840;28;20518;-18
2022/08/07 06:13:21;;;;;;;0.85;0.50;;;19.00;57.80;;;;;;4975457;28;20166;-18
2022/08/07 06:15:47;;;;;;;2.00;0.40;;;19.10;57.70;;;;;;5004997;28;20093;-18
2022/08/07 06:18:13;;;;;;;0.60;0.40;;;19.30;57.30;;;;;;4975394;28;20061;-19
2022/08/07 06:20:39;;;;;;;1.00;0.63;;;19.40;57.10;;;;;;4980438;28;20031;-18
2022/08/07 06:23:06;;;;;;;0.68;0.50;;;19.40;57.10;;;;;;4975860;28;20051;-18
2022/08/07 06:25:32;;;;;;;0.45;0.35;;;19.50;56.90;;;;;;4993462;28;20049;-18
2022/08/07 06:28:04;;;;;;;0.40;0.40;;;19.50;57.00;;;;;;4977101;28;20034;-19
2022/08/07 06:30:30;;;;;;;0.57;0.40;;;19.60;57.00;;;;;;4977388;28;20043;-27
2022/08/07 06:32:56;;;;;;;0.45;0.40;;;19.50;57.00;;;;;;4978720;28;20104;-18
2022/08/07 06:35:21;;;;;;;0.40;0.40;;;19.60;57.00;;;;;;4984470;28;20062;-18
2022/08/07 06:37:47;;;;;;;0.43;0.40;;;19.60;56.90;;;;;;4989413;28;21018;-18
2022/08/07 06:40:12;;;;;;;0.82;0.47;;;19.60;57.10;;;;;;4987049;28;20173;-18
2022/08/07 06:42:38;;;;;;;0.40;0.40;;;19.60;57.20;;;;;;4987052;28;20104;-19
2022/08/07 06:45:09;;;;;;;2.40;0.60;;;19.50;57.20;;;;;;4988767;28;20042;-25
2022/08/07 06:47:35;;;;;;;0.73;0.50;;;19.60;57.20;;;;;;4981286;28;20570;-18
2022/08/07 06:50:01;;;;;;;0.50;0.40;;;19.60;57.30;;;;;;4989387;28;20125;-20
2022/08/07 06:52:29;;;;;;;1.20;0.50;;;19.70;57.30;;;;;;5017651;28;20035;-20
2022/08/07 06:54:54;;;;;;;0.40;0.40;;;19.70;57.30;;;;;;5015244;28;20045;-18
2022/08/07 06:57:20;;;;;;;0.95;0.38;;;19.70;57.50;;;;;;4992391;28;20050;-18
2022/08/07 06:59:45;;;;;;;1.08;0.50;;;19.60;57.40;;;;;;4992370;28;20034;-19
2022/08/07 07:02:17;;;;;;;0.50;0.50;;;19.60;57.70;;;;;;4989016;28;20057;-18
2022/08/07 07:04:46;;;;;;;0.68;0.40;;;19.60;58.00;;;;;;5008668;28;20038;-18
2022/08/07 07:07:11;;;;;;;0.50;0.50;;;19.60;57.80;;;;;;4649545;28;10001213;-18
2022/08/07 07:09:38;;;;;;;0.77;0.70;;;19.60;58.00;;;;;;4974836;28;20050;-18
2022/08/07 07:12:07;;;;;;;1.52;0.63;;;19.70;58.10;;;;;;5007420;28;20141;-19
2022/08/07 07:14:43;;;;;;;0.50;0.32;;;19.70;57.90;;;;;;4976273;28;20038;-26
2022/08/07 07:17:12;;;;;;;0.45;0.30;;;19.80;57.80;;;;;;4976172;28;20137;-18
2022/08/07 07:19:41;;;;;;;0.40;0.40;;;19.80;57.70;;;;;;5009863;28;20132;-18
2022/08/07 07:22:08;;;;;;;1.48;0.60;;;19.80;57.70;;;;;;4977796;28;20519;-20
2022/08/07 07:24:33;;;;;;;0.60;0.50;;;19.80;57.80;;;;;;4975538;28;20049;-19
2022/08/07 07:26:59;;;;;;;0.50;0.50;;;19.90;57.80;;;;;;4976206;28;20046;-19
2022/08/07 07:29:26;;;;;;;1.33;0.60;;;19.80;57.80;;;;;;4995129;28;20084;-19
2022/08/07 07:31:54;;;;;;;0.65;0.30;;;19.90;57.70;;;;;;4975792;28;20058;-19
2022/08/07 07:34:23;;;;;;;0.63;0.60;;;20.00;57.50;;;;;;5011647;28;20129;-20
2022/08/07 07:36:48;;;;;;;0.60;0.40;;;20.00;57.30;;;;;;5009817;28;20046;-19
2022/08/07 07:39:14;;;;;;;0.80;0.60;;;20.00;57.50;;;;;;4978834;28;20169;-18
2022/08/07 07:41:40;;;;;;;0.77;0.47;;;20.00;57.50;;;;;;4973655;28;20503;-18
2022/08/07 07:44:05;;;;;;;1.88;0.50;;;20.00;57.40;;;;;;4990363;28;20507;-19
2022/08/07 07:46:33;;;;;;;0.43;0.43;;;20.10;57.40;;;;;;4982567;28;20050;-19
2022/08/07 07:48:58;;;;;;;0.45;0.40;;;20.10;57.40;;;;;;4996020;28;20046;-19
2022/08/07 07:51:24;;;;;;;1.23;0.63;;;20.20;57.30;;;;;;4982019;28;20038;-21
2022/08/07 07:53:49;;;;;;;0.50;0.50;;;20.20;57.40;;;;;;4979979;28;20493;-21
2022/08/07 07:56:15;;;;;;;0.77;0.50;;;20.20;57.40;;;;;;4979443;28;20061;-25
2022/08/07 07:58:40;;;;;;;0.60;0.60;;;20.20;57.50;;;;;;5016640;28;20129;-19
2022/08/07 08:01:07;;;;;;;0.82;0.52;;;20.40;57.40;;;;;;5012721;28;20047;-19
2022/08/07 08:03:34;;;;;;;1.10;0.50;;;20.40;57.30;;;;;;4981321;28;20698;-18
2022/08/07 08:05:59;;;;;;;1.02;0.60;;;20.40;57.30;;;;;;4981026;28;20534;-18
2022/08/07 08:08:27;;;;;;;1.13;0.80;;;20.50;57.20;;;;;;4997847;28;20054;-20
2022/08/07 08:10:53;;;;;;;0.63;0.50;;;20.50;57.40;;;;;;4981822;28;20053;-19
2022/08/07 08:13:19;;;;;;;0.68;0.50;;;20.60;57.30;;;;;;4980513;28;20054;-19
2022/08/07 08:15:46;;;;;;;1.77;0.40;;;20.60;57.30;;;;;;4994902;28;20050;-19
2022/08/07 08:18:11;;;;;;;1.58;0.40;;;20.60;57.40;;;;;;4973602;28;20100;-19
2022/08/07 08:20:38;;;;;;;0.55;0.47;;;20.60;57.40;;;;;;5008968;28;20053;-18
2022/08/07 08:28:37;;;;;;;0.55;0.50;;;20.70;57.00;;;;;;4982708;28;20147;-18
2022/08/07 08:31:02;;;;;;;0.50;0.40;;;20.80;57.10;;;;;;4995057;28;20519;-19
2022/08/07 08:33:29;;;;;;;2.35;0.60;;;20.80;57.30;;;;;;4983040;28;20068;-19
2022/08/07 08:35:55;;;;;;;0.95;0.30;;;20.80;57.50;;;;;;4630477;28;9999964;-18
2022/08/07 08:38:22;;;;;;;0.30;0.30;;;20.90;57.80;;;;;;5009917;28;20050;-18
2022/08/07 08:41:14;;;;;;;0.30;0.17;;;20.90;57.80;;;;;;5010995;28;20046;-21
2022/08/07 08:44:23;;;;;;;0.57;0.50;;;21.00;57.80;;;;;;5005393;28;20057;-18
2022/08/07 08:47:26;;;;;;;9.32;0.95;;;21.00;57.80;;;;;;4980590;28;20046;-19
2022/08/07 08:50:07;;;;;;;0.47;0.40;;;21.00;57.90;;;;;;4978761;28;20105;-18
2022/08/07 08:52:51;;;;;;;0.40;0.32;;;21.00;57.70;;;;;;4981340;28;20043;-18
2022/08/07 08:55:43;;;;;;;0.57;0.40;;;21.10;57.90;;;;;;4977477;28;20081;-18
2022/08/07 08:58:15;;;;;;;0.30;0.30;;;21.10;57.70;;;;;;4978691;28;20748;-18
2022/08/07 09:01:07;;;;;;;0.63;0.30;;;21.10;57.50;;;;;;4981935;28;20066;-17
2022/08/07 09:03:37;;;;;;;0.50;0.50;;;21.10;57.60;;;;;;4968352;28;20038;-19
2022/08/07 09:06:10;;;;;;;0.77;0.40;;;21.10;57.30;;;;;;4979205;28;20046;-18
2022/08/07 09:08:54;;;;;;;1.00;0.50;;;21.10;57.40;;;;;;5009334;28;20054;-19
2022/08/07 09:11:37;;;;;;;0.28;0.20;;;21.20;57.50;;;;;;4978961;28;20290;-20
2022/08/07 09:14:13;;;;;;;0.40;0.40;;;21.20;57.40;;;;;;4978681;28;20046;-18
2022/08/07 09:17:03;;;;;;;0.40;0.40;;;21.20;58.10;;;;;;5010573;28;20620;-20
2022/08/07 09:19:46;;;;;;;1.02;0.40;;;21.20;57.40;;;;;;4982229;28;20101;-18
2022/08/07 09:22:42;;;;;;;0.63;0.30;;;21.20;57.30;;;;;;5008859;28;20535;-18
2022/08/07 09:25:10;;;;;;;1.52;0.40;;;21.20;57.50;;;;;;4992999;28;21219;-19
2022/08/07 09:28:18;;;;;;;0.40;0.40;;;21.30;57.70;;;;;;4975492;28;20053;-18
2022/08/07 09:30:43;;;;;;;0.52;0.40;;;21.30;58.50;;;;;;5002838;28;20058;-18
2022/08/07 09:33:27;;;;;;;0.52;0.30;;;21.30;59.10;;;;;;4983967;28;20465;-19
2022/08/07 09:35:55;;;;;;;1.75;0.40;;;21.30;59.00;;;;;;5005400;28;20045;-21
2022/08/07 09:38:30;;;;;;;0.40;0.40;;;21.40;58.90;;;;;;4975663;28;20053;-22
2022/08/07 09:41:14;;;;;;;0.50;0.40;;;21.40;58.90;;;;;;4983420;28;20034;-20
2022/08/07 09:44:02;;;;;;;0.65;0.50;;;21.40;58.90;;;;;;4982542;28;20488;-18
2022/08/07 09:46:49;;;;;;;2.55;0.40;;;21.40;58.80;;;;;;5012615;28;20081;-18
2022/08/07 09:49:43;;;;;;;0.32;0.32;;;21.40;58.80;;;;;;4983545;28;20069;-18
2022/08/07 09:52:21;;;;;;;0.38;0.32;;;21.50;59.00;;;;;;4978209;28;20057;-18
2022/08/07 09:54:52;;;;;;;0.52;0.32;;;21.50;58.70;;;;;;4980377;28;20069;-19
2022/08/07 09:57:44;;;;;;;0.43;0.30;;;21.50;58.80;;;;;;4979871;28;20078;-18
2022/08/07 10:00:11;;;;;;;0.50;0.47;;;21.50;58.70;;;;;;4979711;28;20043;-18
2022/08/07 10:03:04;;;;;;;0.30;0.30;;;21.60;58.70;;;;;;4997718;28;20058;-19
2022/08/07 10:05:54;;;;;;;0.30;0.30;;;21.50;58.60;;;;;;4983454;28;20067;-19
2022/08/07 10:08:47;;;;;;;0.60;0.40;;;21.60;58.70;;;;;;4979362;28;20042;-18
2022/08/07 10:11:39;;;;;;;1.00;0.30;;;21.60;58.60;;;;;;4978555;28;20042;-19
2022/08/07 10:14:28;;;;;;;0.30;0.30;;;21.60;58.60;;;;;;4978751;28;20053;-19
2022/08/07 10:17:11;;;;;;;0.70;0.30;;;21.60;58.50;;;;;;4984401;28;20046;-20
2022/08/07 10:19:58;;;;;;;0.40;0.32;;;21.70;58.60;;;;;;4984846;28;20125;-19
2022/08/07 10:23:01;;;;;;;1.17;0.40;;;21.70;58.70;;;;;;4982377;28;20712;-18
2022/08/07 10:25:41;;;;;;;0.52;0.20;;;21.70;58.60;;;;;;4980292;28;20046;-19
2022/08/07 10:28:34;;;;;;;0.75;0.30;;;21.80;58.70;;;;;;5013341;28;20132;-18
2022/08/07 10:31:40;;;;;;;0.90;0.40;;;21.80;58.70;;;;;;5008696;28;20050;-18
2022/08/07 10:34:11;;;;;;;0.40;0.30;;;21.80;58.70;;;;;;4983161;28;20596;-20
2022/08/07 10:36:51;;;;;;;0.30;0.30;;;21.80;58.60;;;;;;4980820;28;20042;-18
2022/08/07 10:39:25;;;;;;;0.20;0.20;;;21.80;58.20;;;;;;5015434;28;20043;-19
2022/08/07 10:41:56;;;;;;;0.40;0.40;;;21.80;58.50;;;;;;4956130;28;20104;-19
2022/08/07 10:44:32;;;;;;;0.45;0.30;;;21.80;58.70;;;;;;5014870;28;20063;-18
2022/08/07 10:47:21;;;;;;;0.30;0.30;;;21.80;58.50;;;;;;4984368;28;20042;-19
2022/08/07 10:49:53;;;;;;;2.03;0.85;;;21.80;58.40;;;;;;4982568;28;20133;-19
2022/08/07 10:52:46;;;;;;;1.25;0.70;;;21.80;58.30;;;;;;4981945;28;20581;-19
2022/08/07 10:55:17;;;;;;;0.60;0.60;;;21.80;58.40;;;;;;4996689;28;20026;-19
2022/08/07 10:58:20;;;;;;;0.35;0.35;;;21.80;58.30;;;;;;5011456;28;20554;-18
2022/08/07 11:00:54;;;;;;;0.70;0.40;;;21.90;58.30;;;;;;5005075;28;20089;-19
2022/08/07 11:03:31;;;;;;;0.82;0.40;;;22.00;58.30;;;;;;4978007;28;20500;-19
2022/08/07 11:06:34;;;;;;;0.50;0.50;;;21.90;58.00;;;;;;5008160;28;20072;-19
2022/08/07 11:09:17;;;;;;;0.35;0.30;;;21.90;58.00;;;;;;4982111;28;20091;-22
2022/08/07 11:12:05;;;;;;;0.70;0.32;;;21.90;58.30;;;;;;4981040;28;20141;-20
2022/08/07 11:14:40;;;;;;;0.70;0.40;;;22.00;58.30;;;;;;5014550;28;20045;-18
2022/08/07 11:17:17;;;;;;;0.38;0.38;;;22.00;58.40;;;;;;4985861;28;20057;-23
2022/08/07 11:20:06;;;;;;;1.75;0.60;;;22.00;58.50;;;;;;4981552;28;20081;-19
2022/08/07 11:22:46;;;;;;;0.57;0.45;;;22.00;58.40;;;;;;5012995;28;20050;-18
2022/08/07 11:25:15;;;;;;;1.33;0.50;;;22.00;58.30;;;;;;4980617;28;20452;-18
2022/08/07 11:28:05;;;;;;;0.68;0.65;;;22.00;58.50;;;;;;4628598;28;9999954;-18
2022/08/07 11:30:38;;;;;;;1.15;0.47;;;22.00;58.50;;;;;;4976627;28;20061;-19
2022/08/07 11:33:52;;;;;;;0.30;0.30;;;22.00;58.50;;;;;;5007567;28;20101;-19
2022/08/07 11:36:36;;;;;;;0.30;0.30;;;22.10;58.40;;;;;;4962429;28;20050;-18
2022/08/07 11:39:22;;;;;;;2.40;0.68;;;22.10;58.50;;;;;;5005026;28;20046;-21
2022/08/07 11:42:14;;;;;;;0.20;0.20;;;22.20;58.40;;;;;;4978269;28;20046;-18
2022/08/07 11:45:10;;;;;;;0.88;0.35;;;22.10;58.30;;;;;;5012206;28;20519;-18
2022/08/07 11:47:39;;;;;;;0.60;0.30;;;22.10;58.40;;;;;;4977197;28;20046;-18
2022/08/07 11:50:23;;;;;;;0.22;0.20;;;22.10;58.40;;;;;;4982530;28;20054;-20
2022/08/07 11:53:26;;;;;;;0.35;0.22;;;22.10;58.30;;;;;;4977768;28;20057;-23
2022/08/07 11:56:00;;;;;;;0.30;0.30;;;22.10;58.40;;;;;;4993749;28;20466;-19
2022/08/07 11:58:44;;;;;;;;;;;22.20;58.40;;;;;;4981863;28;20053;-18
2022/08/07 12:01:24;;;;;;;1.08;0.68;;;22.20;58.40;;;;;;4979221;28;20000;-19
2022/08/07 12:04:16;;;;;;;0.70;0.25;;;22.20;58.40;;;;;;4976590;28;20050;-18
2022/08/07 12:06:51;;;;;;;0.30;0.30;;;22.20;58.40;;;;;;4976522;28;20125;-19
2022/08/07 12:09:34;;;;;;;0.40;0.30;;;22.20;58.40;;;;;;5008912;28;20130;-21
2022/08/07 12:12:06;;;;;;;0.40;0.35;;;22.20;58.60;;;;;;4979432;28;20610;-18
2022/08/07 12:14:58;;;;;;;0.40;0.40;;;22.30;58.50;;;;;;4996288;28;20046;-18
2022/08/07 12:17:32;;;;;;;0.55;0.40;;;22.30;58.40;;;;;;4975949;28;20070;-18
2022/08/07 12:20:07;;;;;;;0.25;0.25;;;22.30;58.40;;;;;;4978001;28;20046;-19
2022/08/07 12:22:39;;;;;;;0.68;0.40;;;22.30;58.30;;;;;;5013746;28;20084;-19
2022/08/07 12:28:03;;;;;;;0.20;0.20;;;22.30;58.40;;;;;;4978969;28;20073;-18
2022/08/07 12:30:33;;;;;;;0.47;0.28;;;22.30;58.40;;;;;;4996200;28;20475;-18
2022/08/07 12:33:09;;;;;;;0.70;0.25;;;22.30;58.30;;;;;;5012494;28;20074;-18
2022/08/07 12:35:34;;;;;;;0.22;0.22;;;22.30;58.30;;;;;;5011408;28;20053;-17
2022/08/07 12:38:00;;;;;;;0.60;0.30;;;22.30;58.30;;;;;;4975532;28;20070;-18
2022/08/07 12:40:28;;;;;;;1.67;0.30;;;22.30;58.40;;;;;;5000913;28;20041;-17
2022/08/07 12:42:54;;;;;;;0.35;0.30;;;22.40;58.60;;;;;;5017928;28;20050;-17
2022/08/07 12:45:22;;;;;;;0.35;0.30;;;22.40;58.50;;;;;;5003805;28;20065;-19
2022/08/07 12:47:59;;;;;;;0.30;0.30;;;22.30;58.50;;;;;;4986366;28;20139;-17
2022/08/07 12:50:35;;;;;;;1.35;0.30;;;22.40;58.50;;;;;;4986038;28;20069;-22
2022/08/07 12:56:11;;;;;;;0.93;0.47;;;22.40;58.30;;;;;;4984912;28;20407;-18
2022/08/07 12:58:38;;;;;;;0.20;0.20;;;22.40;58.20;;;;;;5017580;28;20042;-18
2022/08/07 13:01:25;;;;;;;0.20;0.20;;;22.40;58.20;;;;;;5019627;28;20109;-21
2022/08/07 13:04:07;;;;;;;2.95;0.40;;;22.40;58.20;;;;;;4987381;28;20037;-18
2022/08/07 13:06:49;;;;;;;0.28;0.25;;;22.40;58.20;;;;;;4987245;28;20041;-18
2022/08/07 13:09:42;;;;;;;0.20;0.20;;;22.40;58.10;;;;;;4986787;28;20409;-18
2022/08/07 13:12:14;;;;;;;0.35;0.30;;;22.40;58.20;;;;;;4985421;28;20054;-18
2022/08/07 13:14:56;;;;;;;0.63;0.45;;;22.40;58.10;;;;;;4988859;28;20046;-17
2022/08/07 13:17:40;;;;;;;0.25;0.25;;;22.40;58.10;;;;;;4972228;28;20058;-18
2022/08/07 13:20:15;;;;;;;0.52;0.30;;;22.40;58.10;;;;;;4986563;28;20050;-17
2022/08/07 13:22:49;;;;;;;0.85;0.20;;;22.40;58.10;;;;;;5001865;28;20113;-17